createdAt,value
2022-12-16T00:01:10.621Z,27.63
2022-12-16T00:02:43.705Z,26.53
2022-12-16T00:04:17.534Z,27.42
2022-12-16T00:05:50.411Z,28.97
2022-12-16T00:07:24.818Z,29.43
2022-12-16T00:08:57.864Z,31.00
2022-12-16T00:10:50.720Z,28.20
2022-12-16T00:12:23.538Z,26.53
2022-12-16T00:13:56.369Z,30.20
2022-12-16T00:15:29.299Z,30.63
2022-12-16T00:17:03.560Z,32.40
2022-12-16T00:18:36.763Z,28.73
2022-12-16T00:20:10.673Z,30.85
2022-12-16T00:21:43.517Z,26.10
2022-12-16T00:23:17.030Z,29.40
2022-12-16T00:24:49.946Z,30.87
2022-12-16T00:26:23.900Z,29.77
2022-12-16T00:29:33.853Z,29.63
2022-12-16T00:31:07.587Z,24.60
2022-12-16T00:32:41.893Z,26.77
2022-12-16T00:34:14.885Z,25.43
2022-12-16T00:35:47.941Z,28.45
2022-12-16T00:37:20.813Z,31.52
2022-12-16T00:38:53.794Z,30.88
2022-12-16T00:40:27.061Z,28.25
2022-12-16T00:41:59.946Z,27.65
2022-12-16T00:43:33.432Z,26.85
2022-12-16T00:45:07.673Z,29.27
2022-12-16T00:46:40.938Z,27.47
2022-12-16T00:48:15.547Z,30.05
2022-12-16T00:49:48.423Z,32.27
2022-12-16T00:51:21.269Z,33.97
2022-12-16T00:52:54.161Z,27.98
2022-12-16T00:54:27.693Z,29.37
2022-12-16T00:56:05.125Z,28.08
2022-12-16T00:57:38.014Z,29.03
2022-12-16T00:59:10.925Z,28.83
2022-12-16T01:00:43.964Z,26.75
2022-12-16T01:02:17.302Z,29.98
2022-12-16T01:03:51.631Z,28.98
2022-12-16T01:05:26.962Z,29.40
2022-12-16T01:06:59.921Z,28.87
2022-12-16T01:08:32.831Z,30.88
2022-12-16T01:10:06.533Z,30.88
2022-12-16T01:11:39.448Z,32.17
2022-12-16T01:16:09.215Z,25.17
2022-12-16T01:20:13.447Z,31.43
2022-12-16T01:39:30.211Z,27.90
2022-12-16T01:44:15.814Z,27.53
2022-12-16T01:45:49.412Z,30.33
2022-12-16T02:05:23.107Z,27.50
2022-12-16T02:06:56.433Z,32.73
2022-12-16T02:10:01.694Z,28.37
2022-12-16T02:12:01.951Z,32.77
2022-12-16T02:13:49.617Z,31.53
2022-12-16T02:15:35.962Z,35.50
2022-12-16T02:17:16.164Z,30.70
2022-12-16T02:18:56.467Z,38.17
2022-12-16T02:21:02.307Z,36.27
2022-12-16T02:22:50.658Z,33.37
2022-12-16T02:24:53.576Z,31.40
2022-12-16T02:26:49.724Z,33.60
2022-12-16T02:28:36.514Z,31.60
2022-12-16T02:30:51.126Z,32.67
2022-12-16T02:32:35.569Z,32.17
2022-12-16T02:34:20.828Z,33.40
2022-12-16T02:36:00.704Z,33.50
2022-12-16T02:37:40.869Z,34.13
2022-12-16T02:39:16.331Z,32.13
2022-12-16T02:40:53.001Z,34.87
2022-12-16T02:42:31.156Z,34.23
2022-12-16T02:44:07.607Z,32.00
2022-12-16T02:45:42.256Z,32.20
2022-12-16T02:47:16.726Z,31.67
2022-12-16T02:48:48.806Z,33.67
2022-12-16T02:50:23.860Z,26.17
2022-12-16T02:51:59.345Z,29.70
2022-12-16T02:53:34.072Z,28.93
2022-12-16T02:55:10.153Z,31.60
2022-12-16T02:56:58.454Z,33.20
2022-12-16T02:58:41.020Z,28.60
2022-12-16T03:00:16.084Z,32.30
2022-12-16T03:01:56.969Z,30.47
2022-12-16T03:03:38.878Z,31.23
2022-12-16T03:05:17.782Z,29.60
2022-12-16T03:06:52.403Z,31.10
2022-12-16T03:08:30.325Z,32.13
2022-12-16T03:10:07.568Z,33.97
2022-12-16T03:11:44.241Z,34.07
2022-12-16T03:13:20.917Z,30.70
2022-12-16T03:14:54.902Z,31.10
2022-12-16T03:16:32.226Z,31.40
2022-12-16T03:18:08.346Z,33.37
2022-12-16T03:19:47.446Z,35.10
2022-12-16T03:21:25.722Z,30.17
2022-12-16T03:23:03.153Z,28.60
2022-12-16T03:24:37.041Z,30.40
2022-12-16T03:26:14.884Z,31.10
2022-12-16T03:27:54.584Z,31.60
2022-12-16T03:29:37.127Z,30.80
2022-12-16T03:31:19.392Z,31.20
2022-12-16T03:32:59.436Z,30.27
2022-12-16T03:34:37.925Z,33.30
2022-12-16T03:36:16.632Z,33.97
2022-12-16T03:37:52.992Z,31.13
2022-12-16T03:39:27.106Z,29.83
2022-12-16T03:41:02.126Z,28.77
2022-12-16T03:42:36.359Z,36.00
2022-12-16T03:44:10.468Z,31.10
2022-12-16T03:45:47.910Z,29.60
2022-12-16T03:47:24.096Z,28.83
2022-12-16T03:48:57.379Z,27.67
2022-12-16T03:50:33.305Z,32.40
2022-12-16T03:52:08.017Z,29.33
2022-12-16T03:53:41.024Z,28.60
2022-12-16T03:55:14.266Z,28.15
2022-12-16T03:56:47.617Z,32.80
2022-12-16T03:58:20.657Z,29.25
2022-12-16T03:59:53.840Z,30.42
2022-12-16T04:01:27.149Z,27.65
2022-12-16T04:04:32.761Z,31.40
2022-12-16T04:06:06.641Z,29.67
2022-12-16T04:07:41.077Z,30.83
2022-12-16T04:09:14.320Z,28.70
2022-12-16T04:11:05.051Z,33.75
2022-12-16T04:12:55.657Z,28.87
2022-12-16T04:14:51.775Z,28.50
2022-12-16T04:16:45.873Z,27.93
2022-12-16T04:18:38.303Z,29.00
2022-12-16T04:20:40.104Z,33.03
2022-12-16T04:22:38.114Z,30.13
2022-12-16T04:24:24.100Z,31.57
2022-12-16T04:25:57.151Z,33.57
2022-12-16T04:27:29.480Z,30.13
2022-12-16T04:29:02.329Z,31.97
2022-12-16T04:30:34.808Z,28.90
2022-12-16T04:32:07.885Z,34.67
2022-12-16T04:33:59.707Z,28.98
2022-12-16T04:35:50.502Z,28.07
2022-12-16T04:37:41.173Z,27.90
2022-12-16T04:39:33.101Z,32.17
2022-12-16T04:41:24.006Z,27.53
2022-12-16T04:43:14.616Z,27.80
2022-12-16T04:45:04.983Z,27.63
2022-12-16T04:47:09.936Z,26.57
2022-12-16T04:50:50.554Z,23.57
2022-12-16T04:52:41.168Z,28.13
2022-12-16T04:54:32.850Z,25.60
2022-12-16T04:56:23.939Z,29.23
2022-12-16T04:58:16.893Z,25.33
2022-12-16T05:00:07.431Z,27.33
2022-12-16T05:01:57.964Z,25.53
2022-12-16T05:03:49.738Z,25.20
2022-12-16T05:05:40.246Z,24.97
2022-12-16T05:07:34.835Z,24.80
2022-12-16T05:09:28.745Z,25.17
2022-12-16T05:11:20.329Z,27.40
2022-12-16T05:13:23.015Z,26.80
2022-12-16T05:15:13.271Z,26.37
2022-12-16T05:17:03.766Z,28.00
2022-12-16T05:18:54.237Z,27.37
2022-12-16T05:20:44.969Z,25.50
2022-12-16T05:22:35.233Z,32.33
2022-12-16T05:24:26.249Z,26.77
2022-12-16T05:26:16.727Z,25.27
2022-12-16T05:28:11.346Z,30.87
2022-12-16T05:30:01.771Z,31.23
2022-12-16T05:31:52.216Z,26.40
2022-12-16T05:33:42.938Z,26.50
2022-12-16T05:35:33.584Z,28.13
2022-12-16T05:37:23.859Z,31.27
2022-12-16T05:39:14.465Z,22.60
2022-12-16T05:41:04.753Z,27.93
2022-12-16T05:42:55.943Z,26.77
2022-12-16T05:44:47.608Z,28.40
2022-12-16T05:46:38.171Z,27.43
2022-12-16T05:48:28.783Z,29.17
2022-12-16T05:50:19.508Z,31.67
2022-12-16T05:52:10.159Z,26.03
2022-12-16T05:54:00.671Z,27.33
2022-12-16T05:55:51.028Z,25.30
2022-12-16T05:57:41.448Z,28.80
2022-12-16T05:59:31.872Z,24.13
2022-12-16T06:01:24.182Z,30.20
2022-12-16T06:03:14.620Z,29.40
2022-12-16T06:05:04.963Z,27.23
2022-12-16T06:06:55.577Z,28.30
2022-12-16T06:08:46.137Z,27.63
2022-12-16T06:10:36.636Z,29.10
2022-12-16T06:12:27.130Z,29.13
2022-12-16T06:14:17.695Z,27.97
2022-12-16T06:16:09.113Z,25.40
2022-12-16T06:18:05.844Z,24.77
2022-12-16T06:19:56.532Z,28.50
2022-12-16T06:21:47.057Z,33.50
2022-12-16T06:23:37.829Z,24.73
2022-12-16T06:25:28.568Z,23.97
2022-12-16T06:27:19.042Z,26.97
2022-12-16T06:29:09.455Z,26.37
2022-12-16T06:30:59.852Z,27.57
2022-12-16T06:32:50.357Z,22.60
2022-12-16T06:34:42.055Z,21.90
2022-12-16T06:36:32.473Z,23.00
2022-12-16T06:38:37.711Z,21.97
2022-12-16T06:40:29.379Z,21.17
2022-12-16T06:42:20.066Z,23.60
2022-12-16T06:44:11.669Z,23.60
2022-12-16T06:46:02.276Z,26.00
2022-12-16T06:47:52.964Z,25.43
2022-12-16T06:49:56.485Z,23.60
2022-12-16T06:51:47.041Z,24.67
2022-12-16T06:53:37.676Z,25.97
2022-12-16T06:55:28.115Z,29.23
2022-12-16T06:57:18.509Z,23.60
2022-12-16T06:59:09.098Z,24.63
2022-12-16T07:00:59.621Z,24.90
2022-12-16T07:02:49.949Z,24.40
2022-12-16T07:04:40.654Z,22.63
2022-12-16T07:06:32.902Z,26.73
2022-12-16T07:08:23.291Z,23.57
2022-12-16T07:10:13.765Z,20.03
2022-12-16T07:12:04.405Z,18.03
2022-12-16T07:13:54.953Z,21.70
2022-12-16T07:15:45.249Z,21.17
2022-12-16T07:17:35.794Z,24.30
2022-12-16T07:19:26.324Z,22.60
2022-12-16T07:21:16.911Z,19.73
2022-12-16T07:23:14.599Z,23.17
2022-12-16T07:25:09.459Z,23.10
2022-12-16T07:26:59.960Z,23.50
2022-12-16T07:28:50.219Z,21.60
2022-12-16T07:30:40.850Z,22.07
2022-12-16T07:32:31.326Z,25.70
2022-12-16T07:34:21.533Z,22.07
2022-12-16T07:36:12.179Z,21.57
2022-12-16T07:38:02.850Z,23.20
2022-12-16T07:39:55.539Z,21.30
2022-12-16T07:41:46.242Z,21.97
2022-12-16T07:43:37.021Z,22.00
2022-12-16T07:45:28.886Z,22.60
2022-12-16T07:47:19.121Z,27.83
2022-12-16T07:49:09.540Z,24.37
2022-12-16T07:51:00.144Z,19.77
2022-12-16T07:52:47.066Z,20.63
2022-12-16T07:54:37.493Z,23.87
2022-12-16T07:56:29.240Z,19.77
2022-12-16T07:58:19.856Z,18.27
2022-12-16T08:00:13.710Z,18.13
2022-12-16T08:02:04.176Z,20.23
2022-12-16T08:03:54.449Z,25.13
2022-12-16T08:07:20.961Z,21.67
2022-12-16T08:09:11.345Z,18.70
2022-12-16T08:11:01.816Z,24.17
2022-12-16T08:12:53.730Z,17.33
2022-12-16T08:14:44.395Z,17.00
2022-12-16T08:16:34.980Z,16.17
2022-12-16T08:18:26.093Z,15.80
2022-12-16T08:20:16.727Z,16.80
2022-12-16T08:22:07.069Z,16.90
2022-12-16T08:24:08.995Z,19.87
2022-12-16T08:25:59.241Z,17.27
2022-12-16T08:27:49.934Z,14.80
2022-12-16T08:29:44.591Z,17.00
2022-12-16T08:31:35.690Z,14.67
2022-12-16T08:33:26.115Z,14.93
2022-12-16T08:35:16.539Z,16.67
2022-12-16T08:37:07.137Z,20.00
2022-12-16T08:38:57.677Z,17.60
2022-12-16T08:40:48.747Z,15.57
2022-12-16T08:42:39.291Z,21.53
2022-12-16T08:44:29.854Z,19.83
2022-12-16T08:46:21.832Z,17.27
2022-12-16T08:48:12.349Z,15.20
2022-12-16T08:50:02.971Z,20.10
2022-12-16T08:51:53.287Z,15.67
2022-12-16T08:53:43.717Z,18.50
2022-12-16T08:55:34.203Z,17.63
2022-12-16T08:57:24.668Z,20.53
2022-12-16T08:59:15.316Z,19.03
2022-12-16T09:01:07.792Z,19.47
2022-12-16T09:02:59.990Z,17.60
2022-12-16T09:04:50.556Z,20.10
2022-12-16T09:06:41.525Z,16.93
2022-12-16T09:08:46.667Z,21.03
2022-12-16T09:10:40.362Z,17.00
2022-12-16T09:12:31.034Z,24.48
2022-12-16T09:14:21.569Z,22.23
2022-12-16T09:16:17.536Z,21.60
2022-12-16T09:18:14.187Z,24.00
2022-12-16T09:20:16.226Z,23.40
2022-12-16T09:22:06.844Z,26.10
2022-12-16T09:23:57.223Z,28.23
2022-12-16T09:25:47.726Z,23.53
2022-12-16T09:27:52.705Z,28.77
2022-12-16T09:29:45.006Z,20.90
2022-12-16T09:31:35.653Z,23.87
2022-12-16T09:33:27.348Z,22.50
2022-12-16T09:35:17.914Z,23.27
2022-12-16T09:37:08.182Z,23.70
2022-12-16T09:38:59.066Z,27.63
2022-12-16T09:40:49.180Z,29.87
2022-12-16T09:42:48.452Z,23.43
2022-12-16T09:44:47.440Z,26.80
2022-12-16T09:46:46.306Z,22.03
2022-12-16T09:48:46.270Z,22.00
2022-12-16T09:50:41.322Z,21.60
2022-12-16T09:52:38.178Z,25.97
2022-12-16T09:54:31.137Z,22.87
2022-12-16T09:56:24.466Z,20.97
2022-12-16T09:58:17.063Z,27.40
2022-12-16T10:00:13.963Z,28.93
2022-12-16T10:02:05.020Z,29.73
2022-12-16T10:03:57.850Z,25.47
2022-12-16T10:05:56.742Z,25.67
2022-12-16T10:07:53.861Z,22.80
2022-12-16T10:09:50.355Z,19.77
2022-12-16T10:11:47.351Z,23.10
2022-12-16T10:13:45.863Z,21.43
2022-12-16T10:15:47.850Z,20.23
2022-12-16T10:17:41.787Z,21.40
2022-12-16T10:20:02.385Z,23.08
2022-12-16T10:22:05.135Z,22.20
2022-12-16T10:24:05.767Z,20.67
2022-12-16T10:26:06.343Z,21.23
2022-12-16T10:28:03.442Z,19.83
2022-12-16T10:29:59.170Z,22.50
2022-12-16T10:31:50.728Z,24.57
2022-12-16T10:33:46.225Z,22.27
2022-12-16T10:35:52.770Z,22.10
2022-12-16T10:37:52.075Z,18.33
2022-12-16T10:39:47.700Z,17.97
2022-12-16T10:41:38.689Z,24.40
2022-12-16T10:43:34.920Z,20.47
2022-12-16T10:45:37.205Z,22.97
2022-12-16T10:47:29.134Z,24.13
2022-12-16T10:49:19.698Z,21.53
2022-12-16T10:51:11.335Z,22.13
2022-12-16T10:53:13.007Z,23.70
2022-12-16T10:55:10.058Z,26.37
2022-12-16T10:57:14.318Z,23.43
2022-12-16T10:59:11.589Z,22.05
2022-12-16T11:01:06.166Z,21.37
2022-12-16T11:02:56.956Z,21.67
2022-12-16T11:04:56.113Z,21.23
2022-12-16T11:06:56.405Z,20.20
2022-12-16T11:08:48.721Z,18.10
2022-12-16T11:11:00.839Z,20.07
2022-12-16T11:12:51.474Z,22.87
2022-12-16T11:15:05.521Z,23.07
2022-12-16T11:16:55.130Z,19.77
2022-12-16T11:18:46.034Z,22.10
2022-12-16T11:20:38.402Z,18.60
2022-12-16T11:22:34.727Z,25.07
2022-12-16T11:24:33.291Z,18.87
2022-12-16T11:26:30.541Z,23.27
2022-12-16T11:28:31.133Z,20.83
2022-12-16T11:30:33.535Z,23.37
2022-12-16T11:32:37.133Z,22.70
2022-12-16T11:34:28.655Z,23.87
2022-12-16T11:36:29.156Z,20.77
2022-12-16T11:38:23.206Z,21.13
2022-12-16T11:40:13.872Z,22.27
2022-12-16T11:42:08.116Z,21.27
2022-12-16T11:44:00.869Z,25.23
2022-12-16T11:45:51.350Z,24.17
2022-12-16T11:47:51.662Z,26.07
2022-12-16T11:49:49.058Z,23.87
2022-12-16T11:51:41.075Z,17.97
2022-12-16T11:53:50.627Z,26.07
2022-12-16T11:58:02.669Z,23.90
2022-12-16T11:59:58.516Z,27.07
2022-12-16T12:01:55.557Z,24.33
2022-12-16T12:03:47.586Z,24.23
2022-12-16T12:05:44.020Z,21.10
2022-12-16T12:07:48.133Z,22.60
2022-12-16T12:09:43.736Z,27.23
2022-12-16T12:11:41.184Z,21.57
2022-12-16T12:13:46.895Z,27.83
2022-12-16T12:15:43.721Z,23.23
2022-12-16T12:17:46.461Z,22.47
2022-12-16T12:19:44.252Z,23.63
2022-12-16T12:21:41.562Z,25.33
2022-12-16T12:23:37.425Z,26.43
2022-12-16T12:25:37.625Z,25.77
2022-12-16T12:27:34.967Z,24.20
2022-12-16T12:29:41.931Z,25.47
2022-12-16T12:31:44.191Z,22.13
2022-12-16T12:33:47.417Z,28.07
2022-12-16T12:35:51.807Z,29.03
2022-12-16T12:37:44.917Z,26.35
2022-12-16T12:39:43.313Z,22.53
2022-12-16T12:41:39.982Z,27.20
2022-12-16T12:43:43.475Z,27.27
2022-12-16T12:46:10.829Z,28.03
2022-12-16T12:48:08.330Z,27.00
2022-12-16T12:50:05.855Z,23.47
2022-12-16T12:54:51.989Z,26.67
2022-12-16T12:56:55.570Z,31.20
2022-12-16T12:58:48.959Z,25.47
2022-12-16T13:00:42.156Z,27.93
2022-12-16T13:02:37.042Z,25.60
2022-12-16T13:04:32.680Z,28.10
2022-12-16T13:06:24.183Z,25.47
2022-12-16T13:08:50.551Z,28.70
2022-12-16T13:10:53.878Z,26.10
2022-12-16T13:12:47.984Z,27.23
2022-12-16T13:15:13.403Z,25.90
2022-12-16T13:17:25.874Z,25.67
2022-12-16T13:19:59.120Z,31.27
2022-12-16T13:22:09.372Z,28.40
2022-12-16T13:24:01.272Z,28.67
2022-12-16T13:25:59.350Z,27.87
2022-12-16T13:28:10.569Z,26.67
2022-12-16T13:30:20.545Z,28.00
2022-12-16T13:32:20.667Z,23.03
2022-12-16T13:34:12.195Z,28.70
2022-12-16T13:36:11.958Z,28.97
2022-12-16T13:38:10.489Z,26.77
2022-12-16T13:40:03.259Z,27.13
2022-12-16T13:42:16.438Z,26.90
2022-12-16T13:44:10.604Z,23.47
2022-12-16T13:46:02.666Z,20.08
2022-12-16T13:48:15.287Z,27.13
2022-12-16T13:50:08.130Z,26.73
2022-12-16T13:52:20.959Z,23.33
2022-12-16T13:54:25.985Z,25.37
2022-12-16T13:56:19.398Z,27.30
2022-12-16T13:58:19.960Z,23.75
2022-12-16T14:00:18.028Z,27.97
2022-12-16T14:02:12.731Z,24.90
2022-12-16T14:04:05.735Z,21.57
2022-12-16T14:06:01.799Z,26.07
2022-12-16T14:07:55.890Z,24.93
2022-12-16T14:09:52.047Z,22.23
2022-12-16T14:11:54.297Z,22.57
2022-12-16T14:13:50.240Z,28.23
2022-12-16T14:15:47.982Z,28.77
2022-12-16T14:17:44.624Z,23.47
2022-12-16T14:19:44.672Z,26.60
2022-12-16T14:21:38.815Z,25.40
2022-12-16T14:24:01.888Z,21.80
2022-12-16T14:25:55.596Z,25.23
2022-12-16T14:27:46.252Z,26.73
2022-12-16T14:29:40.843Z,25.70
2022-12-16T14:31:35.443Z,21.77
2022-12-16T14:33:43.830Z,29.90
2022-12-16T14:35:36.788Z,23.47
2022-12-16T14:37:32.374Z,29.03
2022-12-16T14:39:27.615Z,24.00
2022-12-16T14:41:18.222Z,28.90
2022-12-16T14:43:13.137Z,20.73
2022-12-16T14:45:06.199Z,26.40
2022-12-16T14:46:58.943Z,27.60
2022-12-16T14:48:52.835Z,25.37
2022-12-16T14:50:46.671Z,30.75
2022-12-16T14:52:39.347Z,27.77
2022-12-16T14:54:45.169Z,30.03
2022-12-16T14:56:38.054Z,29.67
2022-12-16T14:58:30.455Z,28.97
2022-12-16T15:00:34.083Z,32.87
2022-12-16T15:02:40.752Z,26.53
2022-12-16T15:04:34.388Z,27.60
2022-12-16T15:06:29.806Z,26.52
2022-12-16T15:08:20.234Z,29.03
2022-12-16T15:10:13.272Z,31.80
2022-12-16T15:12:04.252Z,27.43
2022-12-16T15:14:00.333Z,27.67
2022-12-16T15:15:57.038Z,29.13
2022-12-16T15:17:51.191Z,31.33
2022-12-16T15:19:43.180Z,26.77
2022-12-16T15:21:33.708Z,29.17
2022-12-16T15:23:33.408Z,32.20
2022-12-16T15:25:25.713Z,28.60
2022-12-16T15:27:41.203Z,29.97
2022-12-16T15:29:47.765Z,28.13
2022-12-16T15:31:44.239Z,31.13
2022-12-16T15:33:38.781Z,26.77
2022-12-16T15:35:30.302Z,28.03
2022-12-16T15:37:20.891Z,29.27
2022-12-16T15:39:13.926Z,30.70
2022-12-16T15:41:10.061Z,30.63
2022-12-16T15:43:01.460Z,31.00
2022-12-16T15:44:52.432Z,27.17
2022-12-16T15:46:45.304Z,28.70
2022-12-16T15:48:41.885Z,27.87
2022-12-16T15:50:30.261Z,31.53
2022-12-16T15:52:20.799Z,28.00
2022-12-16T15:54:21.189Z,27.83
2022-12-16T15:56:15.110Z,26.27
2022-12-16T15:58:14.116Z,25.02
2022-12-16T16:00:15.765Z,31.97
2022-12-16T16:02:06.412Z,29.57
2022-12-16T16:03:58.532Z,23.57
2022-12-16T16:05:50.001Z,28.73
2022-12-16T16:07:38.928Z,30.83
2022-12-16T16:09:33.644Z,29.77
2022-12-16T16:11:24.458Z,26.63
2022-12-16T16:13:14.976Z,28.33
2022-12-16T16:15:05.472Z,28.60
2022-12-16T16:16:55.895Z,28.13
2022-12-16T16:18:46.396Z,29.90
2022-12-16T16:20:38.326Z,27.30
2022-12-16T16:22:31.503Z,28.00
2022-12-16T16:24:22.462Z,26.53
2022-12-16T16:26:13.079Z,25.23
2022-12-16T16:28:03.646Z,29.73
2022-12-16T16:29:53.990Z,27.87
2022-12-16T16:31:44.758Z,27.03
2022-12-16T16:33:35.650Z,30.00
2022-12-16T16:35:26.573Z,27.23
2022-12-16T16:37:18.595Z,28.77
2022-12-16T16:39:09.152Z,28.10
2022-12-16T16:41:01.509Z,25.50
2022-12-16T16:42:52.047Z,29.10
2022-12-16T16:44:42.559Z,31.03
2022-12-16T16:46:49.085Z,27.90
2022-12-16T16:48:39.698Z,24.43
2022-12-16T16:50:33.019Z,26.07
2022-12-16T16:52:29.230Z,26.40
2022-12-16T16:54:19.727Z,30.60
2022-12-16T16:56:18.169Z,26.73
2022-12-16T16:58:10.711Z,25.77
2022-12-16T17:00:01.352Z,23.47
2022-12-16T17:01:51.708Z,25.33
2022-12-16T17:03:42.846Z,31.07
2022-12-16T17:05:33.774Z,22.90
2022-12-16T17:07:25.352Z,28.27
2022-12-16T17:09:15.913Z,28.67
2022-12-16T17:11:11.728Z,23.30
2022-12-16T17:13:04.689Z,28.47
2022-12-16T17:14:55.506Z,25.87
2022-12-16T17:16:45.986Z,23.90
2022-12-16T17:18:37.674Z,26.63
2022-12-16T17:20:33.844Z,26.87
2022-12-16T17:22:25.882Z,25.07
2022-12-16T17:24:16.064Z,27.37
2022-12-16T17:26:07.247Z,30.80
2022-12-16T17:28:01.758Z,28.93
2022-12-16T17:29:57.550Z,27.03
2022-12-16T17:31:47.967Z,27.70
2022-12-16T17:33:38.638Z,23.70
2022-12-16T17:35:30.486Z,25.83
2022-12-16T17:37:20.839Z,24.90
2022-12-16T17:39:24.437Z,26.40
2022-12-16T17:41:15.061Z,23.43
2022-12-16T17:43:05.451Z,26.40
2022-12-16T17:44:56.205Z,23.17
2022-12-16T17:46:46.551Z,24.43
2022-12-16T17:48:40.324Z,29.33
2022-12-16T17:50:33.157Z,22.70
2022-12-16T17:52:23.709Z,27.33
2022-12-16T17:54:22.685Z,28.73
2022-12-16T17:56:20.666Z,27.00
2022-12-16T17:58:11.152Z,27.40
2022-12-16T18:00:04.493Z,27.07
2022-12-16T18:01:55.030Z,27.97
2022-12-16T18:03:45.719Z,26.03
2022-12-16T18:05:42.398Z,32.57
2022-12-16T18:07:34.498Z,24.83
2022-12-16T18:09:26.204Z,32.50
2022-12-16T18:11:17.047Z,30.70
2022-12-16T18:13:07.576Z,28.47
2022-12-16T18:14:58.271Z,32.50
2022-12-16T18:16:48.947Z,27.80
2022-12-16T18:18:44.434Z,28.47
2022-12-16T18:20:36.582Z,31.30
2022-12-16T18:22:26.873Z,30.73
2022-12-16T18:24:17.342Z,32.27
2022-12-16T18:26:17.490Z,29.83
2022-12-16T18:28:07.945Z,30.30
2022-12-16T18:29:58.531Z,29.67
2022-12-16T18:31:49.423Z,29.37
2022-12-16T18:33:48.577Z,33.60
2022-12-16T18:35:39.090Z,29.60
2022-12-16T18:37:30.328Z,29.47
2022-12-16T18:39:20.813Z,33.33
2022-12-16T18:41:21.685Z,31.43
2022-12-16T18:43:12.143Z,27.80
2022-12-16T18:45:02.669Z,33.27
2022-12-16T18:46:53.158Z,40.23
2022-12-16T18:48:43.722Z,30.80
2022-12-16T18:50:37.745Z,33.70
2022-12-16T18:54:18.921Z,24.67
2022-12-16T18:56:18.074Z,28.70
2022-12-16T18:58:21.046Z,31.03
2022-12-16T19:00:20.819Z,30.83
2022-12-16T19:02:11.578Z,29.97
2022-12-16T19:04:01.889Z,28.33
2022-12-16T19:05:52.429Z,36.87
2022-12-16T19:07:42.924Z,29.10
2022-12-16T19:09:33.397Z,29.00
2022-12-16T19:11:23.765Z,29.00
2022-12-16T19:13:15.173Z,30.67
2022-12-16T19:15:05.784Z,31.47
2022-12-16T19:17:07.728Z,35.57
2022-12-16T19:18:57.898Z,31.37
2022-12-16T19:20:48.504Z,37.10
2022-12-16T19:22:39.319Z,33.10
2022-12-16T19:24:29.683Z,30.93
2022-12-16T19:26:20.199Z,32.20
2022-12-16T19:28:16.143Z,32.63
2022-12-16T19:30:08.008Z,29.57
2022-12-16T19:31:59.707Z,33.37
2022-12-16T19:33:50.129Z,35.30
2022-12-16T19:35:40.823Z,29.70
2022-12-16T19:37:31.625Z,38.93
2022-12-16T19:39:22.337Z,34.57
2022-12-16T19:41:13.419Z,35.13
2022-12-16T19:43:04.119Z,33.63
2022-12-16T19:44:56.154Z,35.77
2022-12-16T19:46:47.742Z,32.03
2022-12-16T19:48:52.510Z,38.17
2022-12-16T19:50:47.332Z,31.87
2022-12-16T19:52:38.076Z,34.40
2022-12-16T19:54:31.043Z,34.97
2022-12-16T19:56:21.540Z,32.93
2022-12-16T19:58:12.119Z,33.97
2022-12-16T20:00:02.499Z,29.10
2022-12-16T20:01:54.891Z,36.83
2022-12-16T20:03:46.009Z,33.80
2022-12-16T20:05:36.742Z,38.03
2022-12-16T20:07:42.011Z,35.80
2022-12-16T20:09:32.433Z,32.67
2022-12-16T20:11:24.949Z,37.03
2022-12-16T20:13:22.807Z,39.70
2022-12-16T20:15:15.215Z,34.73
2022-12-16T20:17:07.158Z,40.10
2022-12-16T20:18:57.770Z,37.07
2022-12-16T20:20:48.274Z,35.37
2022-12-16T20:22:38.822Z,38.87
2022-12-16T20:24:29.378Z,40.83
2022-12-16T20:26:21.969Z,39.83
2022-12-16T20:28:12.374Z,34.23
2022-12-16T20:30:02.783Z,36.20
2022-12-16T20:31:53.271Z,40.33
2022-12-16T20:33:47.961Z,32.77
2022-12-16T20:35:38.867Z,35.80
2022-12-16T20:37:29.733Z,34.00
2022-12-16T20:39:20.302Z,37.60
2022-12-16T20:41:14.947Z,37.13
2022-12-16T20:43:05.424Z,36.73
2022-12-16T20:45:01.320Z,36.40
2022-12-16T20:46:52.154Z,34.87
2022-12-16T20:48:42.665Z,34.63
2022-12-16T20:50:34.425Z,37.80
2022-12-16T20:52:25.971Z,34.00
2022-12-16T20:54:16.489Z,40.13
2022-12-16T20:56:06.646Z,37.47
2022-12-16T20:57:57.235Z,38.73
2022-12-16T20:59:47.873Z,37.47
2022-12-16T21:01:41.719Z,43.50
2022-12-16T21:03:39.119Z,35.37
2022-12-16T21:05:29.694Z,31.67
2022-12-16T21:07:21.750Z,32.90
2022-12-16T21:09:12.560Z,38.83
2022-12-16T21:11:03.166Z,37.30
2022-12-16T21:12:54.247Z,35.07
2022-12-16T21:14:47.615Z,41.05
2022-12-16T21:16:38.118Z,33.07
2022-12-16T21:18:28.571Z,36.07
2022-12-16T21:20:19.033Z,37.83
2022-12-16T21:22:09.665Z,36.17
2022-12-16T21:24:01.395Z,36.13
2022-12-16T21:25:51.850Z,35.00
2022-12-16T21:27:42.465Z,37.70
2022-12-16T21:29:32.762Z,37.70
2022-12-16T21:31:23.593Z,33.80
2022-12-16T21:33:14.175Z,40.23
2022-12-16T21:35:04.782Z,38.23
2022-12-16T21:39:07.041Z,36.90
2022-12-16T21:40:56.879Z,39.40
2022-12-16T21:42:44.354Z,39.70
2022-12-16T21:44:34.949Z,34.97
2022-12-16T21:46:25.458Z,35.60
2022-12-16T21:48:16.039Z,38.83
2022-12-16T21:50:06.666Z,40.73
2022-12-16T21:51:57.232Z,33.50
2022-12-16T21:53:48.665Z,35.80
2022-12-16T21:55:52.202Z,36.83
2022-12-16T21:57:42.115Z,35.20
2022-12-16T21:59:32.602Z,36.83
2022-12-16T22:01:22.707Z,38.70
2022-12-16T22:03:13.555Z,33.33
2022-12-16T22:05:04.084Z,39.40
2022-12-16T22:06:54.592Z,33.83
2022-12-16T22:08:45.706Z,36.73
2022-12-16T22:10:36.292Z,38.07
2022-12-16T22:12:28.298Z,32.77
2022-12-16T22:14:18.866Z,39.83
2022-12-16T22:16:14.367Z,36.87
2022-12-16T22:18:04.891Z,34.63
2022-12-16T22:19:56.431Z,36.10
2022-12-16T22:21:47.361Z,38.17
2022-12-16T22:23:40.646Z,34.37
2022-12-16T22:25:31.383Z,39.15
2022-12-16T22:27:21.965Z,34.50
2022-12-16T22:29:28.400Z,38.07
2022-12-16T22:31:19.063Z,35.60
2022-12-16T22:33:09.512Z,35.13
2022-12-16T22:35:00.163Z,35.03
2022-12-16T22:36:50.581Z,31.50
2022-12-16T22:38:42.156Z,31.07
2022-12-16T22:40:32.960Z,36.90
2022-12-16T22:42:23.552Z,39.13
2022-12-16T22:44:15.420Z,38.53
2022-12-16T22:46:06.149Z,37.87
2022-12-16T22:47:56.497Z,37.87
2022-12-16T22:49:46.928Z,30.00
2022-12-16T22:51:37.450Z,37.03
2022-12-16T22:53:27.885Z,39.37
2022-12-16T22:55:18.312Z,34.13
2022-12-16T22:57:08.828Z,39.53
2022-12-16T22:58:59.879Z,36.27
2022-12-16T23:00:52.123Z,39.80
2022-12-16T23:02:42.456Z,39.30
2022-12-16T23:04:33.112Z,37.50
2022-12-16T23:06:23.717Z,39.27
2022-12-16T23:08:14.643Z,40.17
2022-12-16T23:10:05.281Z,38.53
2022-12-16T23:11:58.165Z,41.67
2022-12-16T23:14:00.128Z,39.40
2022-12-16T23:15:51.959Z,42.10
2022-12-16T23:17:57.177Z,41.20
2022-12-16T23:19:47.862Z,43.90
2022-12-16T23:21:38.500Z,41.60
2022-12-16T23:23:28.861Z,41.43
2022-12-16T23:25:27.746Z,41.40
2022-12-16T23:27:18.351Z,36.03
2022-12-16T23:29:09.422Z,43.53
2022-12-16T23:31:01.544Z,40.73
2022-12-16T23:32:51.876Z,41.43
2022-12-16T23:34:46.102Z,44.10
2022-12-16T23:36:37.020Z,39.20
2022-12-16T23:38:28.711Z,45.70
2022-12-16T23:40:19.266Z,45.30
2022-12-16T23:42:09.794Z,46.83
2022-12-16T23:44:00.264Z,42.53
2022-12-16T23:46:02.082Z,39.03
2022-12-16T23:47:54.090Z,39.63
2022-12-16T23:49:46.839Z,32.63
2022-12-16T23:51:37.369Z,38.87
2022-12-16T23:53:29.906Z,38.57
2022-12-16T23:55:20.300Z,44.23
2022-12-16T23:57:11.306Z,35.50
2022-12-16T23:59:01.884Z,34.90
